Terminal Aerodrome Forecast
Issued by NWS

Home | Current Version | Previous Version | Text Only | Print | Product List | Glossary On
Versions: 1 2 3 4 5 6 7 8 9 10 11 12 13 14 15 16 17 18 19 20 21 22 23 24
000
FTUS46 KOTX 122338
TAFPUW
TAF
KPUW 122338Z 1300/1324 23003KT P6SM SCT008 BKN150
     FM130100 VRB03KT 6SM BR OVC008
     FM130600 VRB03KT 2SM BR OVC003
     FM132000 25003KT 5SM BR OVC005=

USA.gov is the U.S. government's official web portal to all federal, state and local government web resources and services.